sensor_id;sensor_type;location;lat;lon;timestamp;pressure;altitude;pressure_sealevel;temperature;humidity
13695;BME280;6919;52.344;14.518;2023-02-27T00:00:15;101690.41;;;-0.23;100.00
13695;BME280;6919;52.344;14.518;2023-02-27T00:02:48;101690.69;;;-0.31;100.00
13695;BME280;6919;52.344;14.518;2023-02-27T00:05:17;101696.16;;;-0.35;100.00
13695;BME280;6919;52.344;14.518;2023-02-27T00:07:49;101691.97;;;-0.41;100.00
13695;BME280;6919;52.344;14.518;2023-02-27T00:10:18;101693.91;;;-0.46;100.00
13695;BME280;6919;52.344;14.518;2023-02-27T00:12:47;101698.25;;;-0.45;100.00
13695;BME280;6919;52.344;14.518;2023-02-27T00:15:19;101696.72;;;-0.50;100.00
13695;BME280;6919;52.344;14.518;2023-02-27T00:17:49;101709.38;;;-0.60;100.00
13695;BME280;6919;52.344;14.518;2023-02-27T00:20:19;101708.53;;;-0.60;100.00
13695;BME280;6919;52.344;14.518;2023-02-27T00:22:47;101706.00;;;-0.63;100.00
13695;BME280;6919;52.344;14.518;2023-02-27T00:25:16;101705.19;;;-0.65;100.00
13695;BME280;6919;52.344;14.518;2023-02-27T00:27:45;101708.19;;;-0.74;100.00
13695;BME280;6919;52.344;14.518;2023-02-27T00:30:15;101710.06;;;-0.78;100.00
13695;BME280;6919;52.344;14.518;2023-02-27T00:32:45;101704.06;;;-0.81;100.00
13695;BME280;6919;52.344;14.518;2023-02-27T00:35:14;101707.56;;;-0.82;100.00
13695;BME280;6919;52.344;14.518;2023-02-27T00:37:43;101702.09;;;-0.76;100.00
13695;BME280;6919;52.344;14.518;2023-02-27T00:40:12;101710.06;;;-0.78;100.00
13695;BME280;6919;52.344;14.518;2023-02-27T00:42:41;101706.59;;;-0.80;100.00
13695;BME280;6919;52.344;14.518;2023-02-27T00:45:12;101701.47;;;-0.83;100.00
13695;BME280;6919;52.344;14.518;2023-02-27T00:47:42;101705.91;;;-0.85;100.00
13695;BME280;6919;52.344;14.518;2023-02-27T00:50:16;101707.00;;;-0.90;100.00
13695;BME280;6919;52.344;14.518;2023-02-27T00:52:45;101704.53;;;-0.95;100.00
13695;BME280;6919;52.344;14.518;2023-02-27T00:55:14;101704.59;;;-0.96;100.00
13695;BME280;6919;52.344;14.518;2023-02-27T00:57:42;101700.56;;;-1.06;100.00
13695;BME280;6919;52.344;14.518;2023-02-27T01:00:12;101704.25;;;-1.12;100.00
13695;BME280;6919;52.344;14.518;2023-02-27T01:02:41;101703.75;;;-1.21;100.00
13695;BME280;6919;52.344;14.518;2023-02-27T01:05:10;101698.41;;;-1.20;100.00
13695;BME280;6919;52.344;14.518;2023-02-27T01:07:40;101694.03;;;-1.19;100.00
13695;BME280;6919;52.344;14.518;2023-02-27T01:10:10;101697.84;;;-1.28;100.00
13695;BME280;6919;52.344;14.518;2023-02-27T01:12:40;101702.31;;;-1.31;100.00
13695;BME280;6919;52.344;14.518;2023-02-27T01:15:10;101701.44;;;-1.30;100.00
13695;BME280;6919;52.344;14.518;2023-02-27T01:17:39;101693.44;;;-1.27;100.00
13695;BME280;6919;52.344;14.518;2023-02-27T01:20:10;101695.47;;;-1.35;100.00
13695;BME280;6919;52.344;14.518;2023-02-27T01:22:41;101706.25;;;-1.43;100.00
13695;BME280;6919;52.344;14.518;2023-02-27T01:25:10;101700.19;;;-1.45;100.00
13695;BME280;6919;52.344;14.518;2023-02-27T01:27:39;101701.78;;;-1.41;100.00
13695;BME280;6919;52.344;14.518;2023-02-27T01:30:09;101703.94;;;-1.52;100.00
13695;BME280;6919;52.344;14.518;2023-02-27T01:32:39;101704.91;;;-1.54;100.00
13695;BME280;6919;52.344;14.518;2023-02-27T01:35:08;101703.25;;;-1.57;100.00
13695;BME280;6919;52.344;14.518;2023-02-27T01:37:37;101704.25;;;-1.61;100.00
13695;BME280;6919;52.344;14.518;2023-02-27T01:40:08;101707.53;;;-1.54;100.00
13695;BME280;6919;52.344;14.518;2023-02-27T01:42:37;101704.13;;;-1.58;100.00
13695;BME280;6919;52.344;14.518;2023-02-27T01:45:26;101707.69;;;-1.59;100.00
13695;BME280;6919;52.344;14.518;2023-02-27T01:48:01;101710.34;;;-1.60;100.00
13695;BME280;6919;52.344;14.518;2023-02-27T01:50:31;101707.69;;;-1.59;100.00
13695;BME280;6919;52.344;14.518;2023-02-27T01:53:01;101711.13;;;-1.57;100.00
13695;BME280;6919;52.344;14.518;2023-02-27T01:55:34;101712.84;;;-1.56;100.00
13695;BME280;6919;52.344;14.518;2023-02-27T01:58:06;101705.81;;;-1.55;100.00
13695;BME280;6919;52.344;14.518;2023-02-27T02:00:37;101714.53;;;-1.55;100.00
13695;BME280;6919;52.344;14.518;2023-02-27T02:03:20;101708.28;;;-1.51;100.00
13695;BME280;6919;52.344;14.518;2023-02-27T02:05:53;101707.81;;;-1.37;100.00
13695;BME280;6919;52.344;14.518;2023-02-27T02:08:25;101711.88;;;-1.27;100.00
13695;BME280;6919;52.344;14.518;2023-02-27T02:10:58;101708.66;;;-1.37;100.00
13695;BME280;6919;52.344;14.518;2023-02-27T02:13:27;101709.34;;;-1.30;100.00
13695;BME280;6919;52.344;14.518;2023-02-27T02:16:08;101720.59;;;-1.27;100.00
13695;BME280;6919;52.344;14.518;2023-02-27T02:18:46;101714.41;;;-1.26;100.00
13695;BME280;6919;52.344;14.518;2023-02-27T02:22:02;101712.00;;;-1.07;100.00
13695;BME280;6919;52.344;14.518;2023-02-27T02:28:07;101711.91;;;-1.04;100.00
13695;BME280;6919;52.344;14.518;2023-02-27T02:30:58;101717.75;;;-0.96;100.00
13695;BME280;6919;52.344;14.518;2023-02-27T02:39:58;101717.47;;;-0.89;100.00
13695;BME280;6919;52.344;14.518;2023-02-27T02:42:35;101710.72;;;-0.73;100.00
13695;BME280;6919;52.344;14.518;2023-02-27T02:45:12;101715.25;;;-0.76;100.00
13695;BME280;6919;52.344;14.518;2023-02-27T02:47:52;101708.28;;;-0.77;100.00
13695;BME280;6919;52.344;14.518;2023-02-27T02:50:28;101703.75;;;-0.74;100.00
13695;BME280;6919;52.344;14.518;2023-02-27T02:53:04;101713.16;;;-0.67;100.00
13695;BME280;6919;52.344;14.518;2023-02-27T02:55:42;101718.25;;;-0.62;100.00
13695;BME280;6919;52.344;14.518;2023-02-27T02:58:19;101714.81;;;-0.64;100.00
13695;BME280;6919;52.344;14.518;2023-02-27T03:00:54;101713.09;;;-0.65;100.00
13695;BME280;6919;52.344;14.518;2023-02-27T03:03:27;101717.44;;;-0.64;100.00
13695;BME280;6919;52.344;14.518;2023-02-27T03:06:01;101721.88;;;-0.65;100.00
13695;BME280;6919;52.344;14.518;2023-02-27T03:08:35;101721.41;;;-0.53;100.00
13695;BME280;6919;52.344;14.518;2023-02-27T03:11:06;101728.31;;;-0.50;100.00
13695;BME280;6919;52.344;14.518;2023-02-27T03:13:38;101732.75;;;-0.51;100.00
13695;BME280;6919;52.344;14.518;2023-02-27T03:16:14;101737.75;;;-0.45;100.00
13695;BME280;6919;52.344;14.518;2023-02-27T03:18:48;101727.06;;;-0.40;100.00
13695;BME280;6919;52.344;14.518;2023-02-27T03:21:23;101729.63;;;-0.39;100.00
13695;BME280;6919;52.344;14.518;2023-02-27T03:23:56;101727.94;;;-0.40;100.00
13695;BME280;6919;52.344;14.518;2023-02-27T03:26:35;101727.94;;;-0.40;100.00
13695;BME280;6919;52.344;14.518;2023-02-27T03:29:08;101742.81;;;-0.39;100.00
13695;BME280;6919;52.344;14.518;2023-02-27T03:31:40;101739.31;;;-0.39;100.00
13695;BME280;6919;52.344;14.518;2023-02-27T03:34:14;101737.44;;;-0.36;100.00
13695;BME280;6919;52.344;14.518;2023-02-27T03:36:48;101741.94;;;-0.39;100.00
13695;BME280;6919;52.344;14.518;2023-02-27T03:39:26;101740.56;;;-0.26;100.00
13695;BME280;6919;52.344;14.518;2023-02-27T03:42:09;101735.41;;;-0.29;100.00
13695;BME280;6919;52.344;14.518;2023-02-27T03:44:45;101737.06;;;-0.27;100.00
13695;BME280;6919;52.344;14.518;2023-02-27T03:47:19;101740.53;;;-0.25;100.00
13695;BME280;6919;52.344;14.518;2023-02-27T03:49:48;101749.34;;;-0.26;100.00
13695;BME280;6919;52.344;14.518;2023-02-27T03:52:19;101742.28;;;-0.25;100.00
13695;BME280;6919;52.344;14.518;2023-02-27T03:54:55;101747.72;;;-0.07;100.00
13695;BME280;6919;52.344;14.518;2023-02-27T03:57:26;101749.31;;;-0.03;100.00
13695;BME280;6919;52.344;14.518;2023-02-27T03:59:56;101751.06;;;-0.02;100.00
13695;BME280;6919;52.344;14.518;2023-02-27T04:02:26;101748.09;;;0.06;100.00
13695;BME280;6919;52.344;14.518;2023-02-27T04:04:55;101746.09;;;0.13;100.00
13695;BME280;6919;52.344;14.518;2023-02-27T04:07:30;101752.66;;;0.03;100.00
13695;BME280;6919;52.344;14.518;2023-02-27T04:10:18;101747.75;;;0.15;100.00
13695;BME280;6919;52.344;14.518;2023-02-27T04:16:05;101762.03;;;0.10;100.00
13695;BME280;6919;52.344;14.518;2023-02-27T04:18:52;101761.97;;;0.11;100.00
13695;BME280;6919;52.344;14.518;2023-02-27T04:21:28;101762.97;;;0.07;100.00
13695;BME280;6919;52.344;14.518;2023-02-27T04:24:07;101759.19;;;0.14;100.00
13695;BME280;6919;52.344;14.518;2023-02-27T04:26:45;101764.00;;;0.26;100.00
13695;BME280;6919;52.344;14.518;2023-02-27T04:29:19;101763.25;;;0.23;100.00
13695;BME280;6919;52.344;14.518;2023-02-27T04:31:57;101774.06;;;0.17;100.00
13695;BME280;6919;52.344;14.518;2023-02-27T04:34:30;101760.88;;;0.17;100.00
13695;BME280;6919;52.344;14.518;2023-02-27T04:37:04;101770.44;;;0.19;100.00
13695;BME280;6919;52.344;14.518;2023-02-27T04:39:38;101772.19;;;0.19;100.00
13695;BME280;6919;52.344;14.518;2023-02-27T04:42:12;101780.97;;;0.19;100.00
13695;BME280;6919;52.344;14.518;2023-02-27T04:44:43;101777.66;;;0.14;100.00
13695;BME280;6919;52.344;14.518;2023-02-27T04:47:16;101774.16;;;0.14;100.00
13695;BME280;6919;52.344;14.518;2023-02-27T04:49:49;101784.09;;;0.29;100.00
13695;BME280;6919;52.344;14.518;2023-02-27T04:52:22;101786.75;;;0.50;100.00
13695;BME280;6919;52.344;14.518;2023-02-27T04:54:58;101783.78;;;0.58;100.00
13695;BME280;6919;52.344;14.518;2023-02-27T04:57:33;101769.41;;;0.45;100.00
13695;BME280;6919;52.344;14.518;2023-02-27T05:00:05;101779.81;;;0.26;100.00
13695;BME280;6919;52.344;14.518;2023-02-27T05:02:39;101783.25;;;0.28;100.00
13695;BME280;6919;52.344;14.518;2023-02-27T05:05:15;101802.06;;;0.41;100.00
13695;BME280;6919;52.344;14.518;2023-02-27T05:07:50;101802.47;;;0.32;100.00
13695;BME280;6919;52.344;14.518;2023-02-27T05:10:25;101800.13;;;0.46;100.00
13695;BME280;6919;52.344;14.518;2023-02-27T05:12:58;101808.16;;;0.43;100.00
13695;BME280;6919;52.344;14.518;2023-02-27T05:15:31;101805.88;;;0.34;100.00
13695;BME280;6919;52.344;14.518;2023-02-27T05:18:04;101806.81;;;0.33;100.00
13695;BME280;6919;52.344;14.518;2023-02-27T05:20:39;101803.13;;;0.37;100.00
13695;BME280;6919;52.344;14.518;2023-02-27T05:23:15;101804.28;;;0.30;100.00
13695;BME280;6919;52.344;14.518;2023-02-27T05:25:52;101815.03;;;0.25;100.00
13695;BME280;6919;52.344;14.518;2023-02-27T05:28:26;101813.19;;;0.27;100.00
13695;BME280;6919;52.344;14.518;2023-02-27T05:31:01;101806.03;;;0.31;100.00
13695;BME280;6919;52.344;14.518;2023-02-27T05:33:34;101809.72;;;0.27;100.00
13695;BME280;6919;52.344;14.518;2023-02-27T05:36:09;101811.41;;;0.28;100.00
13695;BME280;6919;52.344;14.518;2023-02-27T05:38:42;101808.41;;;0.37;100.00
13695;BME280;6919;52.344;14.518;2023-02-27T05:41:18;101818.09;;;0.36;100.00
13695;BME280;6919;52.344;14.518;2023-02-27T05:43:50;101816.53;;;0.32;100.00
13695;BME280;6919;52.344;14.518;2023-02-27T05:46:26;101823.50;;;0.33;100.00
13695;BME280;6919;52.344;14.518;2023-02-27T05:49:01;101821.69;;;0.34;100.00
13695;BME280;6919;52.344;14.518;2023-02-27T05:51:33;101822.63;;;0.33;100.00
13695;BME280;6919;52.344;14.518;2023-02-27T05:54:06;101832.97;;;0.16;100.00
13695;BME280;6919;52.344;14.518;2023-02-27T05:56:39;101827.41;;;0.23;100.00
13695;BME280;6919;52.344;14.518;2023-02-27T05:59:15;101821.03;;;0.29;100.00
13695;BME280;6919;52.344;14.518;2023-02-27T06:01:46;101816.81;;;0.25;100.00
13695;BME280;6919;52.344;14.518;2023-02-27T06:04:18;101826.88;;;0.37;100.00
13695;BME280;6919;52.344;14.518;2023-02-27T06:06:47;101838.78;;;0.25;100.00
13695;BME280;6919;52.344;14.518;2023-02-27T06:09:16;101845.44;;;0.34;100.00
13695;BME280;6919;52.344;14.518;2023-02-27T06:11:46;101845.59;;;0.31;100.00
13695;BME280;6919;52.344;14.518;2023-02-27T06:14:15;101854.53;;;0.27;100.00
13695;BME280;6919;52.344;14.518;2023-02-27T06:16:44;101866.84;;;0.26;100.00
13695;BME280;6919;52.344;14.518;2023-02-27T06:19:13;101866.00;;;0.26;100.00
13695;BME280;6919;52.344;14.518;2023-02-27T06:21:43;101876.31;;;0.32;100.00
13695;BME280;6919;52.344;14.518;2023-02-27T06:24:12;101871.72;;;0.37;100.00
13695;BME280;6919;52.344;14.518;2023-02-27T06:26:41;101870.59;;;0.42;100.00
13695;BME280;6919;52.344;14.518;2023-02-27T06:29:10;101877.03;;;0.35;100.00
13695;BME280;6919;52.344;14.518;2023-02-27T06:31:38;101892.31;;;0.50;100.00
13695;BME280;6919;52.344;14.518;2023-02-27T06:34:07;101885.28;;;0.49;100.00
13695;BME280;6919;52.344;14.518;2023-02-27T06:36:35;101886.09;;;0.51;100.00
13695;BME280;6919;52.344;14.518;2023-02-27T06:39:06;101891.19;;;0.56;100.00
13695;BME280;6919;52.344;14.518;2023-02-27T06:41:35;101889.47;;;0.55;100.00
13695;BME280;6919;52.344;14.518;2023-02-27T06:44:03;101884.19;;;0.55;100.00
13695;BME280;6919;52.344;14.518;2023-02-27T06:46:32;101881.75;;;0.50;100.00
13695;BME280;6919;52.344;14.518;2023-02-27T06:49:01;101896.59;;;0.53;100.00
13695;BME280;6919;52.344;14.518;2023-02-27T06:51:30;101890.03;;;0.63;100.00
13695;BME280;6919;52.344;14.518;2023-02-27T06:53:59;101885.91;;;0.77;100.00
13695;BME280;6919;52.344;14.518;2023-02-27T06:56:29;101896.00;;;0.68;100.00
13695;BME280;6919;52.344;14.518;2023-02-27T06:58:58;101892.19;;;0.75;100.00
13695;BME280;6919;52.344;14.518;2023-02-27T07:01:27;101888.63;;;0.76;100.00
13695;BME280;6919;52.344;14.518;2023-02-27T07:03:56;101895.63;;;0.77;100.00
13695;BME280;6919;52.344;14.518;2023-02-27T07:06:24;101893.03;;;0.97;100.00
13695;BME280;6919;52.344;14.518;2023-02-27T07:09:13;101901.94;;;0.94;100.00
13695;BME280;6919;52.344;14.518;2023-02-27T07:11:43;101892.63;;;1.07;100.00
13695;BME280;6919;52.344;14.518;2023-02-27T07:14:12;101903.66;;;1.17;100.00
13695;BME280;6919;52.344;14.518;2023-02-27T07:16:42;101902.13;;;1.11;100.00
13695;BME280;6919;52.344;14.518;2023-02-27T07:19:13;101901.53;;;1.05;100.00
13695;BME280;6919;52.344;14.518;2023-02-27T07:21:42;101916.25;;;1.10;100.00
13695;BME280;6919;52.344;14.518;2023-02-27T07:24:10;101905.06;;;1.04;100.00
13695;BME280;6919;52.344;14.518;2023-02-27T07:26:39;101916.88;;;1.17;100.00
13695;BME280;6919;52.344;14.518;2023-02-27T07:29:09;101920.78;;;1.28;100.00
13695;BME280;6919;52.344;14.518;2023-02-27T07:31:38;101923.25;;;1.11;100.00
13695;BME280;6919;52.344;14.518;2023-02-27T07:34:07;101914.16;;;1.18;100.00
13695;BME280;6919;52.344;14.518;2023-02-27T07:36:38;101922.31;;;1.12;100.00
13695;BME280;6919;52.344;14.518;2023-02-27T07:39:07;101920.31;;;1.19;100.00
13695;BME280;6919;52.344;14.518;2023-02-27T07:41:37;101927.44;;;1.17;100.00
13695;BME280;6919;52.344;14.518;2023-02-27T07:44:05;101927.25;;;1.21;100.00
13695;BME280;6919;52.344;14.518;2023-02-27T07:46:36;101930.78;;;1.20;100.00
13695;BME280;6919;52.344;14.518;2023-02-27T07:49:04;101935.88;;;1.25;100.00
13695;BME280;6919;52.344;14.518;2023-02-27T07:51:33;101933.72;;;1.34;100.00
13695;BME280;6919;52.344;14.518;2023-02-27T07:54:02;101934.00;;;1.48;100.00
13695;BME280;6919;52.344;14.518;2023-02-27T07:56:31;101937.66;;;1.66;100.00
13695;BME280;6919;52.344;14.518;2023-02-27T07:58:59;101937.91;;;1.60;100.00
13695;BME280;6919;52.344;14.518;2023-02-27T08:01:28;101938.97;;;1.56;100.00
13695;BME280;6919;52.344;14.518;2023-02-27T08:03:58;101938.34;;;1.51;100.00
13695;BME280;6919;52.344;14.518;2023-02-27T08:06:29;101938.81;;;1.39;100.00
13695;BME280;6919;52.344;14.518;2023-02-27T08:08:57;101939.78;;;1.58;100.00
13695;BME280;6919;52.344;14.518;2023-02-27T08:11:26;101945.19;;;1.55;100.00
13695;BME280;6919;52.344;14.518;2023-02-27T08:13:55;101950.84;;;1.46;100.00
13695;BME280;6919;52.344;14.518;2023-02-27T08:16:28;101951.25;;;1.57;100.00
13695;BME280;6919;52.344;14.518;2023-02-27T08:19:00;101961.84;;;1.57;100.00
13695;BME280;6919;52.344;14.518;2023-02-27T08:21:29;101964.06;;;1.46;100.00
13695;BME280;6919;52.344;14.518;2023-02-27T08:23:58;101956.56;;;1.57;100.00
13695;BME280;6919;52.344;14.518;2023-02-27T08:26:26;101957.78;;;1.48;100.00
13695;BME280;6919;52.344;14.518;2023-02-27T08:28:56;101956.97;;;1.48;100.00
13695;BME280;6919;52.344;14.518;2023-02-27T08:31:24;101959.81;;;1.63;100.00
13695;BME280;6919;52.344;14.518;2023-02-27T08:33:53;101971.28;;;1.62;100.00
13695;BME280;6919;52.344;14.518;2023-02-27T08:36:37;101966.66;;;1.47;100.00
13695;BME280;6919;52.344;14.518;2023-02-27T08:39:07;101966.78;;;1.44;100.00
13695;BME280;6919;52.344;14.518;2023-02-27T08:41:36;101969.78;;;1.57;100.00
13695;BME280;6919;52.344;14.518;2023-02-27T08:44:05;101964.59;;;1.54;100.00
13695;BME280;6919;52.344;14.518;2023-02-27T08:46:33;101969.88;;;1.54;100.00
13695;BME280;6919;52.344;14.518;2023-02-27T08:49:02;101965.03;;;1.65;100.00
13695;BME280;6919;52.344;14.518;2023-02-27T08:51:31;101966.03;;;1.82;100.00
13695;BME280;6919;52.344;14.518;2023-02-27T08:54:01;101966.91;;;1.83;100.00
13695;BME280;6919;52.344;14.518;2023-02-27T08:56:30;101971.78;;;1.72;100.00
13695;BME280;6919;52.344;14.518;2023-02-27T08:59:00;101984.38;;;1.65;100.00
13695;BME280;6919;52.344;14.518;2023-02-27T09:01:29;101979.19;;;1.84;100.00
13695;BME280;6919;52.344;14.518;2023-02-27T09:04:01;101984.09;;;1.93;100.00
13695;BME280;6919;52.344;14.518;2023-02-27T09:06:31;101977.19;;;2.29;100.00
13695;BME280;6919;52.344;14.518;2023-02-27T09:09:02;101979.03;;;2.27;100.00
13695;BME280;6919;52.344;14.518;2023-02-27T09:11:31;101979.28;;;2.41;100.00
13695;BME280;6919;52.344;14.518;2023-02-27T09:14:00;101984.69;;;2.38;100.00
13695;BME280;6919;52.344;14.518;2023-02-27T09:16:28;101975.59;;;2.25;100.00
13695;BME280;6919;52.344;14.518;2023-02-27T09:18:57;101983.22;;;2.51;100.00
13695;BME280;6919;52.344;14.518;2023-02-27T09:21:26;101984.66;;;2.58;100.00
13695;BME280;6919;52.344;14.518;2023-02-27T09:23:56;101982.59;;;2.83;100.00
13695;BME280;6919;52.344;14.518;2023-02-27T09:26:45;101989.84;;;2.79;100.00
13695;BME280;6919;52.344;14.518;2023-02-27T09:29:14;101986.75;;;2.88;100.00
13695;BME280;6919;52.344;14.518;2023-02-27T09:31:43;101995.53;;;3.07;100.00
13695;BME280;6919;52.344;14.518;2023-02-27T09:34:12;101996.88;;;3.35;100.00
13695;BME280;6919;52.344;14.518;2023-02-27T09:36:40;101987.97;;;3.36;100.00
13695;BME280;6919;52.344;14.518;2023-02-27T09:39:10;101988.22;;;3.31;100.00
13695;BME280;6919;52.344;14.518;2023-02-27T09:41:55;101979.53;;;3.63;100.00
13695;BME280;6919;52.344;14.518;2023-02-27T09:44:34;101999.25;;;3.75;100.00
13695;BME280;6919;52.344;14.518;2023-02-27T09:47:17;101992.97;;;3.77;100.00
13695;BME280;6919;52.344;14.518;2023-02-27T09:49:54;101995.75;;;4.08;100.00
13695;BME280;6919;52.344;14.518;2023-02-27T09:52:26;101991.69;;;4.01;100.00
13695;BME280;6919;52.344;14.518;2023-02-27T09:54:55;102000.69;;;3.99;100.00
13695;BME280;6919;52.344;14.518;2023-02-27T09:57:38;101993.59;;;3.99;100.00
13695;BME280;6919;52.344;14.518;2023-02-27T10:00:26;101995.59;;;3.94;100.00
13695;BME280;6919;52.344;14.518;2023-02-27T10:03:03;102007.00;;;4.30;100.00
13695;BME280;6919;52.344;14.518;2023-02-27T10:05:42;102005.75;;;3.86;100.00
13695;BME280;6919;52.344;14.518;2023-02-27T10:08:20;102012.47;;;4.10;100.00
13695;BME280;6919;52.344;14.518;2023-02-27T10:10:57;102014.50;;;4.05;100.00
13695;BME280;6919;52.344;14.518;2023-02-27T10:13:48;102006.91;;;4.32;100.00
13695;BME280;6919;52.344;14.518;2023-02-27T10:16:20;102009.91;;;4.58;100.00
13695;BME280;6919;52.344;14.518;2023-02-27T10:18:53;102000.97;;;4.27;100.00
13695;BME280;6919;52.344;14.518;2023-02-27T10:21:30;102010.22;;;4.52;100.00
13695;BME280;6919;52.344;14.518;2023-02-27T10:24:06;102008.22;;;4.73;100.00
13695;BME280;6919;52.344;14.518;2023-02-27T10:26:41;102009.56;;;4.64;100.00
13695;BME280;6919;52.344;14.518;2023-02-27T10:29:17;102014.38;;;4.73;100.00
13695;BME280;6919;52.344;14.518;2023-02-27T10:31:52;102003.84;;;4.72;100.00
13695;BME280;6919;52.344;14.518;2023-02-27T10:34:24;102014.16;;;5.09;100.00
13695;BME280;6919;52.344;14.518;2023-02-27T10:36:55;102019.56;;;5.07;100.00
13695;BME280;6919;52.344;14.518;2023-02-27T10:39:24;102019.38;;;5.10;100.00
13695;BME280;6919;52.344;14.518;2023-02-27T10:41:54;102015.13;;;5.23;100.00
13695;BME280;6919;52.344;14.518;2023-02-27T10:44:27;102018.66;;;5.39;100.00
13695;BME280;6919;52.344;14.518;2023-02-27T10:46:55;102032.69;;;5.10;100.00
13695;BME280;6919;52.344;14.518;2023-02-27T10:49:24;102022.84;;;5.43;100.00
13695;BME280;6919;52.344;14.518;2023-02-27T10:52:07;102032.34;;;5.16;94.93
13695;BME280;6919;52.344;14.518;2023-02-27T10:54:37;102030.97;;;5.56;100.00
13695;BME280;6919;52.344;14.518;2023-02-27T10:57:19;102029.47;;;5.81;97.92
13695;BME280;6919;52.344;14.518;2023-02-27T10:59:55;102034.06;;;5.48;99.46
13695;BME280;6919;52.344;14.518;2023-02-27T11:02:34;102028.41;;;5.54;99.73
13695;BME280;6919;52.344;14.518;2023-02-27T11:05:05;102027.69;;;5.82;99.57
13695;BME280;6919;52.344;14.518;2023-02-27T11:07:36;102028.09;;;5.74;92.33
13695;BME280;6919;52.344;14.518;2023-02-27T11:10:16;102033.88;;;5.82;83.42
13695;BME280;6919;52.344;14.518;2023-02-27T11:12:58;102025.06;;;5.35;86.37
13695;BME280;6919;52.344;14.518;2023-02-27T11:15:32;102024.34;;;5.63;95.61
13695;BME280;6919;52.344;14.518;2023-02-27T11:18:20;102024.63;;;5.58;91.41
13695;BME280;6919;52.344;14.518;2023-02-27T11:20:52;102016.00;;;5.69;89.82
13695;BME280;6919;52.344;14.518;2023-02-27T11:23:23;102014.38;;;5.82;93.44
13695;BME280;6919;52.344;14.518;2023-02-27T11:26:09;102017.81;;;5.84;99.59
13695;BME280;6919;52.344;14.518;2023-02-27T11:28:38;102018.34;;;5.59;93.79
13695;BME280;6919;52.344;14.518;2023-02-27T11:31:15;102014.25;;;5.38;96.29
13695;BME280;6919;52.344;14.518;2023-02-27T11:33:49;102007.00;;;5.71;97.72
13695;BME280;6919;52.344;14.518;2023-02-27T11:36:19;102008.63;;;5.89;92.54
13695;BME280;6919;52.344;14.518;2023-02-27T11:38:51;102019.13;;;5.61;87.48
13695;BME280;6919;52.344;14.518;2023-02-27T11:41:29;102004.72;;;5.34;92.76
13695;BME280;6919;52.344;14.518;2023-02-27T11:44:01;102013.41;;;5.22;91.27
13695;BME280;6919;52.344;14.518;2023-02-27T11:46:34;102011.81;;;5.49;94.05
13695;BME280;6919;52.344;14.518;2023-02-27T11:49:26;102013.03;;;5.59;97.73
13695;BME280;6919;52.344;14.518;2023-02-27T11:52:02;102004.72;;;5.50;98.94
13695;BME280;6919;52.344;14.518;2023-02-27T11:54:39;102008.19;;;5.36;99.96
13695;BME280;6919;52.344;14.518;2023-02-27T11:57:18;102001.75;;;5.25;100.00
13695;BME280;6919;52.344;14.518;2023-02-27T11:59:51;102005.69;;;5.33;100.00
13695;BME280;6919;52.344;14.518;2023-02-27T12:02:30;102015.41;;;5.79;100.00
13695;BME280;6919;52.344;14.518;2023-02-27T12:05:13;102015.44;;;5.48;98.78
13695;BME280;6919;52.344;14.518;2023-02-27T12:07:45;102007.94;;;5.70;99.41
13695;BME280;6919;52.344;14.518;2023-02-27T12:10:21;102010.69;;;5.53;99.22
13695;BME280;6919;52.344;14.518;2023-02-27T12:12:54;102004.31;;;5.26;96.29
13695;BME280;6919;52.344;14.518;2023-02-27T12:15:28;102008.94;;;5.38;100.00
13695;BME280;6919;52.344;14.518;2023-02-27T12:18:07;102006.25;;;5.07;100.00
13695;BME280;6919;52.344;14.518;2023-02-27T12:20:47;101997.53;;;5.36;100.00
13695;BME280;6919;52.344;14.518;2023-02-27T12:23:22;102008.75;;;5.57;100.00
13695;BME280;6919;52.344;14.518;2023-02-27T12:25:59;102000.44;;;5.47;96.93
13695;BME280;6919;52.344;14.518;2023-02-27T12:28:36;101995.38;;;5.27;92.53
13695;BME280;6919;52.344;14.518;2023-02-27T12:31:30;102001.31;;;5.77;87.11
13695;BME280;6919;52.344;14.518;2023-02-27T12:34:11;102001.16;;;5.65;84.12
13695;BME280;6919;52.344;14.518;2023-02-27T12:36:43;102003.22;;;5.75;81.80
13695;BME280;6919;52.344;14.518;2023-02-27T12:39:17;102003.66;;;5.83;78.52
13695;BME280;6919;52.344;14.518;2023-02-27T12:42:08;102002.53;;;5.87;71.48
13695;BME280;6919;52.344;14.518;2023-02-27T12:45:03;102003.81;;;6.10;70.27
13695;BME280;6919;52.344;14.518;2023-02-27T12:47:39;102005.34;;;6.14;67.35
13695;BME280;6919;52.344;14.518;2023-02-27T12:50:17;102004.75;;;5.95;67.98
13695;BME280;6919;52.344;14.518;2023-02-27T12:52:57;102007.66;;;5.75;68.15
13695;BME280;6919;52.344;14.518;2023-02-27T12:55:31;102006.44;;;6.26;64.28
13695;BME280;6919;52.344;14.518;2023-02-27T12:58:20;101999.31;;;6.26;60.87
13695;BME280;6919;52.344;14.518;2023-02-27T13:00:56;102005.09;;;5.89;60.26
13695;BME280;6919;52.344;14.518;2023-02-27T13:03:31;102001.00;;;5.83;59.81
13695;BME280;6919;52.344;14.518;2023-02-27T13:06:11;102001.41;;;5.60;59.83
13695;BME280;6919;52.344;14.518;2023-02-27T13:09:19;102002.56;;;5.56;59.05
13695;BME280;6919;52.344;14.518;2023-02-27T13:12:00;102003.22;;;5.75;61.09
13695;BME280;6919;52.344;14.518;2023-02-27T13:14:39;102004.13;;;5.90;60.31
13695;BME280;6919;52.344;14.518;2023-02-27T13:17:19;102003.22;;;5.91;57.43
13695;BME280;6919;52.344;14.518;2023-02-27T13:19:53;102000.84;;;6.00;57.29
13695;BME280;6919;52.344;14.518;2023-02-27T13:22:32;102007.34;;;5.65;60.06
13695;BME280;6919;52.344;14.518;2023-02-27T13:25:10;102003.34;;;5.43;61.83
13695;BME280;6919;52.344;14.518;2023-02-27T13:27:43;102004.38;;;5.56;63.42
13695;BME280;6919;52.344;14.518;2023-02-27T13:30:20;102004.31;;;5.42;63.83
13695;BME280;6919;52.344;14.518;2023-02-27T13:32:57;102009.94;;;5.67;64.81